Time;durP1;ratioP1;P1;durP2;ratioP2;P2;SDS_P1;SDS_P2;PMS_P1;PMS_P2;Temp;Humidity;BMP_temperature;BMP_pressure;BME280_temperature;BME280_humidity;BME280_pressure;Samples;Min_cycle;Max_cycle;Signal;HPM_P1;HPM_P2
2022/01/16 00:05:32;;;;;;;18.03;11.83;;;0.50;99.90;0.10;97606.00;;;;5006949;28;20441;-87
2022/01/16 00:08:22;;;;;;;22.70;12.20;;;-0.50;99.90;0.10;97603.00;;;;5013623;28;20463;-86
2022/01/16 00:11:12;;;;;;;15.73;11.40;;;0.80;99.90;0.20;97602.00;;;;5009585;28;20431;-87
2022/01/16 00:14:03;;;;;;;18.33;11.37;;;0.50;99.90;0.30;97611.00;;;;5010613;28;20460;-86
2022/01/16 00:16:52;;;;;;;17.03;10.43;;;1.20;99.90;0.50;97564.00;;;;5006961;28;20441;-86
2022/01/16 00:19:41;;;;;;;15.77;10.27;;;1.20;99.90;0.50;97546.00;;;;5010078;28;20430;-86
2022/01/16 00:22:34;;;;;;;12.77;9.50;;;0.70;99.90;0.40;97568.00;;;;5003575;28;20789;-87
2022/01/16 00:25:23;;;;;;;17.63;10.43;;;0.90;99.90;0.30;97566.00;;;;5007464;28;20808;-87
2022/01/16 00:28:12;;;;;;;17.60;11.73;;;1.30;99.90;0.30;97573.00;;;;5001858;28;20476;-87
2022/01/16 00:31:02;;;;;;;12.97;9.83;;;0.90;99.90;0.10;97582.00;;;;4994639;28;20439;-86
2022/01/16 00:33:52;;;;;;;14.03;10.37;;;1.00;99.90;0.10;97554.00;;;;5001907;28;20456;-86
2022/01/16 00:36:41;;;;;;;14.27;10.23;;;1.00;99.90;0.00;97539.00;;;;5016102;28;20429;-86
2022/01/16 00:39:30;;;;;;;16.13;9.73;;;1.30;99.90;0.00;97530.00;;;;5005259;28;20428;-86
2022/01/16 00:42:18;;;;;;;13.77;10.77;;;0.70;99.90;0.10;97539.00;;;;4999638;28;20442;-86
2022/01/16 00:45:08;;;;;;;13.83;10.23;;;1.20;99.90;0.30;97545.00;;;;4998878;28;20449;-87
2022/01/16 00:47:59;;;;;;;14.70;10.33;;;0.60;99.90;0.30;97562.00;;;;5002562;28;20481;-86
2022/01/16 00:50:48;;;;;;;14.90;11.33;;;0.60;99.90;0.50;97521.00;;;;4994475;28;20429;-86
2022/01/16 00:53:39;;;;;;;13.97;10.23;;;0.90;99.90;0.40;97518.00;;;;4991605;28;20852;-86
2022/01/16 00:56:27;;;;;;;16.40;10.70;;;1.40;99.90;0.20;97527.00;;;;5003866;28;20440;-86
2022/01/16 00:59:16;;;;;;;17.13;11.57;;;1.20;99.90;0.10;97494.00;;;;5011530;28;20437;-86
2022/01/16 01:02:05;;;;;;;19.60;11.07;;;1.20;99.90;0.10;97537.00;;;;5010004;28;21012;-86
2022/01/16 01:04:56;;;;;;;18.27;10.50;;;0.60;99.90;0.00;97564.00;;;;5000468;28;20455;-86
2022/01/16 01:07:44;;;;;;;13.67;10.03;;;1.60;99.90;-0.10;97536.00;;;;4998004;28;20966;-86
2022/01/16 01:10:49;;;;;;;14.87;10.60;;;1.00;99.90;0.10;97550.00;;;;4992911;28;20452;-86
2022/01/16 01:13:56;;;;;;;17.47;10.93;;;1.80;99.90;0.30;97482.00;;;;4993266;28;20484;-86
2022/01/16 01:16:53;;;;;;;15.10;10.80;;;1.80;99.90;0.40;97462.00;;;;5005347;28;20429;-86
2022/01/16 01:19:42;;;;;;;11.83;9.00;;;1.30;99.90;0.40;97469.00;;;;5003857;28;20585;-86
2022/01/16 01:22:32;;;;;;;16.13;10.57;;;0.90;99.90;0.40;97474.00;;;;5000961;28;20429;-86
2022/01/16 01:25:22;;;;;;;13.43;9.20;;;2.10;99.90;0.50;97458.00;;;;4995746;28;20440;-86
2022/01/16 01:28:12;;;;;;;15.70;10.37;;;1.00;99.90;0.50;97495.00;;;;4999444;28;20459;-86
2022/01/16 01:31:01;;;;;;;12.80;9.77;;;0.70;99.90;0.40;97500.00;;;;5000270;28;20415;-86
2022/01/16 01:33:50;;;;;;;14.47;9.53;;;0.70;99.90;0.40;97533.00;;;;4990815;28;20884;-87
2022/01/16 01:36:39;;;;;;;16.20;10.27;;;2.40;99.90;0.30;97518.00;;;;5006739;28;20429;-86
2022/01/16 01:39:29;;;;;;;17.47;10.87;;;0.80;99.90;0.30;97501.00;;;;5003345;28;20802;-86
2022/01/16 01:42:18;;;;;;;17.40;9.00;;;1.20;99.90;0.00;97480.00;;;;5000120;28;20448;-86
2022/01/16 01:51:21;;;;;;;13.73;10.03;;;0.60;99.90;0.40;97463.00;;;;5001166;28;20425;-86
2022/01/16 01:54:10;;;;;;;14.60;10.40;;;0.70;99.90;0.20;97478.00;;;;4994386;28;20479;-86
2022/01/16 01:57:01;;;;;;;13.83;10.13;;;1.10;99.90;0.40;97487.00;;;;5015026;28;20425;-87
2022/01/16 01:59:50;;;;;;;15.53;10.37;;;1.00;99.90;0.40;97495.00;;;;5017177;28;20449;-88
2022/01/16 02:02:51;;;;;;;15.93;10.07;;;0.80;99.90;0.40;97483.00;;;;5010490;28;20444;-88
2022/01/16 02:05:42;;;;;;;17.47;10.23;;;0.80;99.90;0.30;97501.00;;;;5010801;28;21042;-88
2022/01/16 02:08:31;;;;;;;12.17;10.60;;;1.40;99.90;0.30;97501.00;;;;5002540;28;21118;-88
2022/01/16 02:11:25;;;;;;;17.40;9.97;;;1.50;99.90;0.20;97495.00;;;;5001217;28;20503;-87
2022/01/16 02:14:26;;;;;;;12.67;9.43;;;1.20;99.90;0.30;97483.00;;;;5004297;28;20468;-88
2022/01/16 02:30:42;;;;;;;15.33;10.33;;;0.80;99.90;0.00;97433.00;;;;4996907;28;21048;-86
2022/01/16 02:36:31;;;;;;;14.17;9.83;;;1.10;99.90;0.20;97422.00;;;;4994813;28;20432;-87
2022/01/16 02:39:26;;;;;;;13.07;10.10;;;0.50;99.90;0.00;97414.00;;;;5006835;28;20445;-86
2022/01/16 02:42:16;;;;;;;13.00;9.20;;;0.50;99.90;-0.20;97413.00;;;;5002028;28;20465;-87
2022/01/16 02:45:15;;;;;;;11.97;8.47;;;0.90;99.90;-0.10;97413.00;;;;4996725;28;20433;-86
2022/01/16 02:48:07;;;;;;;14.47;10.53;;;0.30;99.90;-0.40;97410.00;;;;5001388;28;20433;-87
2022/01/16 02:50:56;;;;;;;15.33;10.03;;;0.30;99.90;-0.60;97403.00;;;;4999547;28;20487;-87
2022/01/16 02:53:45;;;;;;;14.27;11.10;;;0.60;99.90;-0.60;97413.00;;;;4999608;28;20442;-87
2022/01/16 02:56:36;;;;;;;15.30;11.10;;;0.60;99.90;-0.50;97400.00;;;;4994285;28;20940;-87
2022/01/16 02:59:25;;;;;;;15.70;11.00;;;0.30;99.90;-0.50;97393.00;;;;5004863;28;20441;-86
2022/01/16 03:02:13;;;;;;;16.53;11.33;;;0.30;99.90;-0.50;97393.00;;;;5013869;28;20511;-87
2022/01/16 03:05:02;;;;;;;17.23;10.93;;;0.00;99.90;-0.50;97388.00;;;;5007644;28;20433;-88
2022/01/16 03:07:51;;;;;;;15.73;11.87;;;-0.10;99.90;-0.60;97383.00;;;;5006249;28;20810;-87
2022/01/16 03:11:03;;;;;;;15.10;11.90;;;-0.10;99.90;-0.80;97382.00;;;;4997406;28;20465;-86
2022/01/16 03:13:54;;;;;;;19.10;10.50;;;-0.20;99.90;-0.80;97380.00;;;;4998874;28;20461;-87
2022/01/16 03:16:47;;;;;;;14.13;10.43;;;0.40;99.90;-0.90;97379.00;;;;4995527;28;20441;-87
2022/01/16 03:22:42;;;;;;;13.03;11.17;;;-0.40;99.90;-1.00;97373.00;;;;5006358;28;20429;-87
2022/01/16 03:25:31;;;;;;;17.83;12.60;;;-0.20;99.90;-0.90;97378.00;;;;5002146;28;20425;-86
2022/01/16 03:28:21;;;;;;;18.87;13.10;;;-0.10;99.90;-1.00;97356.00;;;;5010868;28;20644;-86
2022/01/16 03:31:11;;;;;;;16.53;10.93;;;-0.20;99.90;-1.10;97364.00;;;;5004409;28;20468;-86
2022/01/16 03:34:00;;;;;;;18.23;11.83;;;1.00;99.90;-1.10;97366.00;;;;5003884;28;20838;-86
2022/01/16 03:36:50;;;;;;;16.43;11.70;;;-0.60;99.90;-1.20;97345.00;;;;5004303;28;20434;-86
2022/01/16 03:39:40;;;;;;;18.17;11.60;;;-0.60;99.90;-1.40;97365.00;;;;4997830;28;21079;-86
2022/01/16 03:42:32;;;;;;;19.40;13.23;;;-0.60;99.90;-1.40;97365.00;;;;5006932;28;20429;-85
2022/01/16 03:45:21;;;;;;;16.33;11.23;;;-0.60;99.90;-1.30;97368.00;;;;5004227;28;20441;-86
2022/01/16 03:48:11;;;;;;;18.23;11.60;;;-0.80;99.90;-1.50;97368.00;;;;5006444;28;20451;-86
2022/01/16 03:51:00;;;;;;;19.07;11.93;;;-0.80;99.90;-1.50;97365.00;;;;5008661;28;20468;-87
2022/01/16 03:53:50;;;;;;;18.07;12.87;;;-0.80;99.90;-1.60;97357.00;;;;5001727;28;20450;-87
2022/01/16 03:56:39;;;;;;;19.40;12.60;;;-0.40;99.90;-1.40;97361.00;;;;5003999;28;21110;-87
2022/01/16 03:59:28;;;;;;;21.07;12.77;;;-0.80;99.90;-1.50;97354.00;;;;5004868;28;20433;-87
2022/01/16 04:02:17;;;;;;;18.03;11.77;;;-0.90;99.90;-1.50;97361.00;;;;5009598;28;20438;-86
2022/01/16 04:05:09;;;;;;;17.90;11.37;;;-0.90;99.90;-1.40;97366.00;;;;5001711;28;20437;-86
2022/01/16 04:07:59;;;;;;;18.43;11.17;;;-0.90;99.90;-1.40;97383.00;;;;5007052;28;20460;-86
2022/01/16 04:10:48;;;;;;;17.73;11.77;;;-0.40;99.90;-1.60;97373.00;;;;4997368;28;20480;-86
2022/01/16 04:13:43;;;;;;;19.97;12.30;;;-0.90;99.90;-1.80;97365.00;;;;4999479;28;20457;-85
2022/01/16 04:16:33;;;;;;;21.17;13.97;;;-1.00;99.90;-1.70;97363.00;;;;4993191;28;20431;-85
2022/01/16 04:19:22;;;;;;;16.30;11.67;;;-1.10;99.90;-1.70;97354.00;;;;5002668;28;20426;-86
2022/01/16 04:22:13;;;;;;;13.67;10.40;;;0.00;99.90;-1.80;97358.00;;;;5008999;28;20480;-85
2022/01/16 04:25:03;;;;;;;17.03;12.00;;;-1.10;99.90;-1.80;97370.00;;;;5007702;28;20775;-85
2022/01/16 04:27:51;;;;;;;14.33;11.17;;;-1.20;99.90;-1.70;97363.00;;;;5001027;28;20444;-86
2022/01/16 04:30:40;;;;;;;14.90;10.97;;;-0.50;99.90;-1.70;97357.00;;;;4999103;28;20842;-87
2022/01/16 04:33:29;;;;;;;18.43;11.90;;;-0.60;99.90;-1.60;97364.00;;;;4994292;28;20865;-87
2022/01/16 04:36:19;;;;;;;18.10;11.73;;;-1.20;99.90;-1.80;97352.00;;;;4997930;28;20441;-86
2022/01/16 04:39:14;;;;;;;15.43;11.03;;;-1.20;99.90;-2.00;97357.00;;;;5004401;28;20980;-86
2022/01/16 04:45:12;;;;;;;16.67;10.37;;;-1.30;99.90;-1.90;97341.00;;;;5009091;28;21261;-86
2022/01/16 04:48:01;;;;;;;18.80;11.93;;;-1.30;99.90;-1.90;97334.00;;;;4998592;28;20782;-85
2022/01/16 04:50:49;;;;;;;13.13;10.23;;;-1.30;99.90;-1.80;97341.00;;;;5006670;28;20465;-87
2022/01/16 04:53:38;;;;;;;15.47;11.73;;;-1.30;99.90;-1.80;97339.00;;;;5008991;28;20825;-85
2022/01/16 04:56:29;;;;;;;16.17;10.67;;;-1.30;99.90;-1.90;97354.00;;;;5000020;28;20440;-85
2022/01/16 04:59:18;;;;;;;14.67;9.60;;;-0.30;99.90;-2.20;97331.00;;;;4999118;28;20434;-85
2022/01/16 05:02:07;;;;;;;19.40;10.97;;;0.50;99.90;-2.00;97324.00;;;;5009527;28;20480;-85
2022/01/16 05:04:56;;;;;;;17.00;11.43;;;-0.90;99.90;-2.00;97330.00;;;;5012198;28;20433;-87
2022/01/16 05:07:45;;;;;;;15.97;11.83;;;-0.40;99.90;-2.00;97327.00;;;;5012675;28;20433;-87
2022/01/16 05:10:33;;;;;;;14.17;9.70;;;-0.40;99.90;-2.00;97330.00;;;;5011021;28;20477;-86
2022/01/16 05:16:34;;;;;;;15.77;11.20;;;-1.40;99.90;-2.10;97324.00;;;;5011036;28;20465;-86
2022/01/16 05:16:41;;;;;;;18.57;9.83;;;-0.30;99.90;-2.00;97320.00;;;;5011051;28;20958;-86
2022/01/16 05:19:30;;;;;;;14.17;9.47;;;-1.50;99.90;-2.10;97316.00;;;;5011970;28;20434;-85
2022/01/16 05:22:18;;;;;;;14.53;10.23;;;-1.50;99.90;-2.30;97318.00;;;;5010888;28;20441;-86
2022/01/16 05:25:11;;;;;;;15.73;11.30;;;-1.50;99.90;-2.30;97314.00;;;;5003166;28;20806;-86
2022/01/16 05:28:00;;;;;;;15.57;10.23;;;-1.60;99.90;-2.50;97317.00;;;;5011031;28;20432;-86
2022/01/16 05:30:51;;;;;;;17.00;11.43;;;-1.00;99.90;-2.50;97313.00;;;;5011913;28;20475;-85
2022/01/16 05:33:39;;;;;;;10.23;7.40;;;-1.70;99.90;-2.50;97317.00;;;;5010262;28;20453;-84
2022/01/16 05:36:28;;;;;;;14.20;8.90;;;-1.70;99.90;-2.60;97306.00;;;;5006817;28;20429;-85
2022/01/16 05:39:17;;;;;;;15.10;10.37;;;-1.70;99.90;-2.40;97305.00;;;;5009763;28;20437;-85
2022/01/16 05:42:08;;;;;;;15.00;9.60;;;-1.70;99.90;-2.20;97313.00;;;;5009138;28;20809;-84
2022/01/16 05:44:57;;;;;;;14.73;9.53;;;-1.70;99.90;-2.30;97317.00;;;;5005158;28;20441;-84
2022/01/16 05:47:47;;;;;;;13.03;10.50;;;-1.70;99.90;-2.40;97316.00;;;;5007022;28;20435;-84
2022/01/16 05:50:36;;;;;;;13.53;10.07;;;-1.70;99.90;-2.50;97309.00;;;;5007590;28;20475;-84
2022/01/16 05:53:25;;;;;;;12.50;8.03;;;-1.70;99.90;-2.80;97306.00;;;;5008590;28;20455;-84
2022/01/16 05:56:14;;;;;;;11.40;9.23;;;-1.80;99.90;-2.60;97304.00;;;;4994564;28;20471;-84
2022/01/16 05:59:03;;;;;;;14.50;10.43;;;-1.90;99.90;-2.60;97307.00;;;;5008363;28;20437;-84
2022/01/16 06:01:51;;;;;;;14.60;10.90;;;-1.60;99.90;-2.60;97300.00;;;;5009162;28;20430;-84
2022/01/16 06:04:42;;;;;;;14.00;10.10;;;-1.90;99.90;-3.10;97300.00;;;;5005839;28;20445;-84
2022/01/16 06:07:31;;;;;;;12.20;8.83;;;-2.00;99.90;-2.90;97307.00;;;;5006117;28;20962;-84
2022/01/16 06:10:20;;;;;;;14.60;10.20;;;-2.10;99.90;-2.70;97293.00;;;;5003564;28;20448;-84
2022/01/16 06:13:09;;;;;;;12.17;9.80;;;-2.10;99.90;-2.70;97302.00;;;;5008234;28;20823;-84
2022/01/16 06:15:58;;;;;;;10.53;7.70;;;-2.10;99.90;-2.90;97294.00;;;;5008166;28;20962;-84
2022/01/16 06:18:47;;;;;;;15.23;10.23;;;-2.10;99.90;-3.10;97308.00;;;;5009136;28;20464;-85
2022/01/16 06:21:37;;;;;;;12.67;9.10;;;-2.20;99.90;-3.20;97301.00;;;;5007351;28;20444;-84
2022/01/16 06:24:26;;;;;;;10.63;8.70;;;-2.20;99.90;-3.30;97302.00;;;;5008298;28;20449;-84
2022/01/16 06:27:15;;;;;;;15.17;10.50;;;-2.30;99.90;-2.80;97323.00;;;;5007056;28;20432;-85
2022/01/16 06:30:07;;;;;;;15.00;9.03;;;-2.20;99.90;-2.60;97323.00;;;;5007589;28;20429;-84
2022/01/16 06:32:56;;;;;;;21.23;11.50;;;-2.20;99.90;-2.60;97322.00;;;;5005820;28;20453;-84
2022/01/16 06:35:45;;;;;;;12.90;10.27;;;-2.20;99.90;-2.60;97329.00;;;;5007306;28;20818;-84
2022/01/16 06:38:35;;;;;;;13.63;10.03;;;-2.10;99.90;-2.60;97329.00;;;;5009166;28;20421;-84
2022/01/16 06:41:24;;;;;;;12.47;8.90;;;-2.10;99.90;-3.10;97318.00;;;;5002562;28;20469;-84
2022/01/16 06:44:13;;;;;;;15.20;9.50;;;-2.10;99.90;-3.00;97327.00;;;;5002781;28;20453;-85
2022/01/16 06:47:01;;;;;;;16.07;11.37;;;-2.20;99.90;-2.80;97322.00;;;;5006874;28;20944;-84
2022/01/16 06:49:50;;;;;;;16.20;11.93;;;-2.20;99.90;-2.90;97317.00;;;;4997304;28;20518;-84
2022/01/16 06:52:39;;;;;;;17.37;9.53;;;-2.20;99.90;-3.10;97316.00;;;;5008210;28;20507;-85
2022/01/16 06:55:29;;;;;;;19.57;13.60;;;-2.20;99.90;-3.10;97316.00;;;;5007997;28;20434;-84
2022/01/16 06:58:18;;;;;;;16.43;12.23;;;-2.20;99.90;-3.00;97319.00;;;;5008015;28;20440;-85
2022/01/16 07:01:07;;;;;;;19.50;12.13;;;-1.30;99.90;-3.00;97313.00;;;;4999916;28;20453;-85
2022/01/16 07:03:56;;;;;;;19.43;12.37;;;-2.30;99.90;-2.80;97311.00;;;;4997172;28;20513;-84
2022/01/16 07:06:45;;;;;;;17.43;13.37;;;-1.80;99.90;-2.50;97322.00;;;;4995675;28;20526;-85
2022/01/16 07:09:33;;;;;;;29.73;18.47;;;-2.00;99.90;-2.40;97331.00;;;;4994097;28;20966;-85
2022/01/16 07:12:24;;;;;;;19.83;12.80;;;-2.00;99.90;-2.40;97335.00;;;;4998330;28;20489;-84
2022/01/16 07:15:13;;;;;;;16.10;10.70;;;-1.90;99.90;-2.30;97336.00;;;;4996791;28;21095;-85
2022/01/16 07:18:03;;;;;;;16.57;11.50;;;-1.80;99.90;-2.60;97325.00;;;;4997220;28;20971;-85
2022/01/16 07:20:52;;;;;;;21.50;16.37;;;-1.80;99.90;-2.70;97320.00;;;;4993419;28;20463;-84
2022/01/16 07:23:41;;;;;;;20.70;14.23;;;-1.90;99.90;-2.60;97327.00;;;;4992711;28;20453;-84
2022/01/16 07:26:30;;;;;;;19.57;12.20;;;-1.90;99.90;-2.50;97325.00;;;;4995694;28;20792;-85
2022/01/16 07:29:20;;;;;;;14.13;10.20;;;-1.90;99.90;-2.50;97324.00;;;;4993597;28;20425;-85
2022/01/16 07:32:09;;;;;;;5.57;3.37;;;-1.80;99.90;-2.80;97338.00;;;;4996087;28;20887;-84
2022/01/16 07:34:58;;;;;;;15.80;9.80;;;-1.80;99.90;-2.70;97333.00;;;;4993042;28;20818;-84
2022/01/16 07:37:48;;;;;;;16.73;11.07;;;-1.90;99.90;-2.50;97338.00;;;;4994576;28;20955;-84
2022/01/16 07:40:37;;;;;;;17.43;11.63;;;-1.60;99.90;-2.30;97327.00;;;;4993340;28;20429;-85
2022/01/16 07:43:26;;;;;;;18.03;11.20;;;-1.40;99.90;-2.50;97329.00;;;;5001158;28;20480;-83
2022/01/16 07:46:18;;;;;;;14.10;10.93;;;-1.70;99.90;-2.60;97324.00;;;;4998963;28;20452;-83
2022/01/16 07:49:07;;;;;;;14.67;9.27;;;-1.70;99.90;-2.60;97322.00;;;;4999365;28;20445;-84
2022/01/16 07:51:56;;;;;;;13.13;8.93;;;-1.70;99.90;-2.60;97315.00;;;;4998451;28;20469;-85
2022/01/16 07:54:44;;;;;;;17.37;10.87;;;-1.70;99.90;-2.70;97328.00;;;;4998497;28;20476;-83
2022/01/16 07:57:33;;;;;;;18.00;11.67;;;-1.70;99.90;-2.60;97309.00;;;;4998230;28;20997;-84
2022/01/16 08:00:31;;;;;;;9.57;6.40;;;-1.70;99.90;-3.00;97325.00;;;;4999880;28;20449;-83
2022/01/16 08:03:21;;;;;;;15.77;8.47;;;-0.80;99.90;-2.60;97328.00;;;;4997888;28;20464;-84
2022/01/16 08:06:10;;;;;;;14.20;10.53;;;-1.80;99.90;-2.30;97324.00;;;;4998587;28;20439;-82
2022/01/16 08:08:59;;;;;;;8.33;7.47;;;-1.60;99.90;-2.30;97314.00;;;;5012515;28;20524;-84
2022/01/16 08:11:48;;;;;;;13.60;8.00;;;-1.50;99.90;-2.30;97307.00;;;;5011963;28;20491;-84
2022/01/16 08:14:37;;;;;;;27.63;16.37;;;-1.50;99.90;-2.10;97311.00;;;;5021646;28;20448;-83
2022/01/16 08:17:26;;;;;;;25.80;15.77;;;-1.40;99.90;-1.90;97313.00;;;;5017119;28;20440;-85
2022/01/16 08:20:16;;;;;;;16.57;11.07;;;-1.30;99.90;-1.80;97294.00;;;;5014673;28;20448;-85
2022/01/16 08:23:05;;;;;;;17.03;11.37;;;-1.20;99.90;-2.10;97294.00;;;;5011903;28;20445;-85
2022/01/16 08:25:53;;;;;;;11.17;6.90;;;-1.10;99.90;-2.00;97286.00;;;;5015613;28;20981;-84
2022/01/16 08:28:42;;;;;;;5.40;4.90;;;-1.10;99.90;-2.30;97283.00;;;;5011698;28;20430;-85
2022/01/16 08:31:31;;;;;;;9.73;6.03;;;-1.20;99.90;-2.40;97267.00;;;;5011669;28;20776;-83
2022/01/16 08:34:20;;;;;;;15.60;11.20;;;-1.20;99.90;-2.20;97258.00;;;;5004428;28;20480;-84
2022/01/16 08:37:10;;;;;;;12.23;8.83;;;-1.30;99.90;-2.10;97266.00;;;;5001904;28;20449;-85
2022/01/16 08:39:59;;;;;;;7.77;6.33;;;-1.30;99.90;-2.20;97263.00;;;;4998947;28;20444;-84
2022/01/16 08:42:48;;;;;;;17.93;10.40;;;-1.30;99.90;-1.80;97258.00;;;;5001415;28;20739;-82
2022/01/16 08:45:38;;;;;;;17.23;11.77;;;-1.20;99.90;-1.40;97262.00;;;;5000319;28;20507;-82
2022/01/16 08:48:28;;;;;;;14.10;10.30;;;-1.00;99.90;-1.40;97258.00;;;;4994836;28;20487;-84
2022/01/16 08:51:17;;;;;;;15.50;10.77;;;-0.90;99.90;-1.50;97247.00;;;;4995944;28;20965;-82
2022/01/16 08:54:08;;;;;;;12.30;8.37;;;-0.80;99.90;-1.70;97252.00;;;;5001983;28;20471;-83
2022/01/16 08:56:57;;;;;;;12.57;10.37;;;-0.60;99.90;-1.30;97255.00;;;;5000339;28;20437;-83
2022/01/16 08:59:45;;;;;;;14.97;9.07;;;-0.70;99.90;-1.30;97253.00;;;;4998597;28;20449;-82
2022/01/16 09:02:35;;;;;;;16.93;11.10;;;-0.60;99.90;-1.00;97256.00;;;;4999067;28;20492;-83
2022/01/16 09:05:25;;;;;;;19.97;12.73;;;-0.50;99.90;-0.40;97252.00;;;;4995976;28;20563;-85
2022/01/16 09:08:14;;;;;;;19.20;12.13;;;-0.30;99.90;-0.10;97252.00;;;;4999400;28;20500;-88
2022/01/16 09:11:05;;;;;;;16.57;11.87;;;0.80;99.90;-0.40;97242.00;;;;4997703;28;20491;-90
2022/01/16 09:13:58;;;;;;;10.87;8.37;;;1.90;99.90;-0.60;97241.00;;;;4996975;28;20877;-84
2022/01/16 09:16:47;;;;;;;12.10;9.17;;;0.40;99.90;-0.40;97233.00;;;;5008069;28;20437;-90
2022/01/16 09:19:36;;;;;;;15.57;10.30;;;0.20;99.90;-0.20;97233.00;;;;5006522;28;20434;-83
2022/01/16 09:22:24;;;;;;;11.70;6.97;;;0.30;99.90;-0.10;97229.00;;;;4994833;28;20429;-82
2022/01/16 09:25:15;;;;;;;13.00;10.00;;;0.50;99.90;0.10;97236.00;;;;5000637;28;20470;-85
2022/01/16 09:28:06;;;;;;;13.87;9.20;;;0.50;99.90;0.40;97232.00;;;;5001779;28;21169;-86
2022/01/16 09:30:55;;;;;;;13.90;9.97;;;0.60;99.90;0.50;97229.00;;;;5006211;28;20812;-85
2022/01/16 09:33:44;;;;;;;16.67;11.00;;;1.10;99.90;0.60;97226.00;;;;5010554;28;20473;-85
2022/01/16 09:36:33;;;;;;;12.33;9.10;;;0.90;99.90;0.70;97225.00;;;;5008722;28;20445;-87
2022/01/16 09:39:21;;;;;;;11.83;8.33;;;1.00;99.90;0.90;97224.00;;;;5009855;28;20448;-88
2022/01/16 09:42:11;;;;;;;16.70;8.87;;;1.20;99.90;1.10;97213.00;;;;5022648;28;20432;-87
2022/01/16 09:45:08;;;;;;;10.63;7.60;;;2.40;99.90;0.80;97215.00;;;;5009266;28;20429;-87
2022/01/16 09:48:07;;;;;;;11.27;8.97;;;1.40;99.90;1.20;97221.00;;;;5008370;28;20438;-88
2022/01/16 09:50:58;;;;;;;12.60;8.80;;;1.50;99.90;1.70;97213.00;;;;5008670;28;20440;-87
2022/01/16 09:53:47;;;;;;;12.27;7.90;;;1.60;99.90;1.80;97206.00;;;;5001263;28;20472;-87
2022/01/16 09:56:39;;;;;;;11.00;8.73;;;2.10;99.90;1.80;97209.00;;;;5015072;28;20815;-87
2022/01/16 09:59:28;;;;;;;14.47;7.83;;;2.10;99.90;2.10;97197.00;;;;5014010;28;20518;-88
2022/01/16 10:02:21;;;;;;;13.50;7.53;;;2.20;99.90;2.30;97192.00;;;;5013168;28;20429;-87
2022/01/16 10:05:28;;;;;;;11.00;7.23;;;2.40;99.90;3.00;97195.00;;;;5015931;28;20445;-88
2022/01/16 10:08:28;;;;;;;12.27;7.53;;;2.70;99.90;3.10;97192.00;;;;5009376;28;20443;-87
2022/01/16 10:11:29;;;;;;;8.13;6.90;;;3.00;99.90;3.20;97185.00;;;;5003476;28;20429;-86
2022/01/16 10:14:22;;;;;;;12.13;7.30;;;3.20;99.90;3.40;97173.00;;;;5002155;28;20477;-87
2022/01/16 10:17:13;;;;;;;8.27;6.93;;;3.40;99.90;4.00;97178.00;;;;5000390;28;20497;-87
2022/01/16 10:20:09;;;;;;;11.83;8.27;;;3.70;99.90;4.00;97170.00;;;;5012313;28;20432;-87
2022/01/16 10:23:01;;;;;;;12.20;8.73;;;3.90;99.90;4.30;97166.00;;;;5008373;28;20834;-86
2022/01/16 10:25:50;;;;;;;14.67;8.87;;;4.10;99.90;4.80;97164.00;;;;5015058;28;20429;-89
2022/01/16 10:28:39;;;;;;;18.63;8.10;;;4.40;99.90;5.30;97175.00;;;;5016846;28;20424;-87
2022/01/16 10:31:28;;;;;;;13.57;7.20;;;4.70;99.90;5.70;97175.00;;;;5017779;28;20429;-87
2022/01/16 10:34:31;;;;;;;10.23;5.90;;;5.10;99.90;6.70;97170.00;;;;5015633;28;20230;-87
2022/01/16 10:37:30;;;;;;;9.43;7.17;;;5.80;99.90;6.90;97164.00;;;;5012455;28;20206;-88
2022/01/16 10:40:23;;;;;;;9.20;6.13;;;6.90;99.90;6.80;97165.00;;;;5020798;28;20259;-87
2022/01/16 10:43:15;;;;;;;12.57;7.30;;;7.60;99.90;8.00;97165.00;;;;5013838;28;20243;-87
2022/01/16 10:46:04;;;;;;;10.27;6.23;;;8.20;99.90;8.50;97160.00;;;;5013165;28;20232;-89
2022/01/16 10:49:20;;;;;;;9.50;6.87;;;8.80;99.90;8.60;97158.00;;;;5012954;28;20505;-86
2022/01/16 10:52:10;;;;;;;6.87;5.90;;;9.30;97.60;8.80;97148.00;;;;5017415;28;20190;-87
2022/01/16 10:55:08;;;;;;;7.90;6.27;;;9.60;94.60;8.90;97143.00;;;;5013975;28;20662;-86
2022/01/16 10:58:06;;;;;;;8.90;6.27;;;9.90;92.40;8.50;97138.00;;;;5017195;28;20205;-86
2022/01/16 11:01:00;;;;;;;8.93;6.40;;;9.80;90.70;9.20;97139.00;;;;5013754;28;20206;-86
2022/01/16 11:03:53;;;;;;;10.20;5.73;;;9.80;90.90;9.50;97147.00;;;;5015228;28;20230;-86
2022/01/16 11:06:42;;;;;;;8.37;6.37;;;9.90;90.20;9.10;97133.00;;;;5015015;28;20202;-86
2022/01/16 11:09:32;;;;;;;7.37;5.87;;;10.00;87.70;10.10;97140.00;;;;5014038;28;20214;-85
2022/01/16 11:12:23;;;;;;;9.77;6.00;;;10.20;87.90;9.50;97140.00;;;;5023385;28;20197;-84
2022/01/16 11:15:13;;;;;;;9.63;5.20;;;10.50;84.30;9.80;97128.00;;;;5022318;28;20201;-87
2022/01/16 11:18:02;;;;;;;10.27;6.20;;;10.60;82.60;9.90;97132.00;;;;5027040;28;20197;-87
2022/01/16 11:21:03;;;;;;;7.00;5.80;;;10.90;81.30;9.70;97118.00;;;;5037482;28;20670;-87
2022/01/16 11:24:11;;;;;;;10.20;5.97;;;11.10;79.90;10.50;97121.00;;;;5017422;28;20226;-87
2022/01/16 11:27:00;;;;;;;8.37;6.60;;;11.10;78.40;11.00;97121.00;;;;5017647;28;20208;-87
2022/01/16 11:29:51;;;;;;;8.53;5.87;;;11.50;77.10;10.80;97121.00;;;;5014868;28;20206;-86
2022/01/16 11:32:40;;;;;;;6.20;5.37;;;11.60;75.50;11.00;97126.00;;;;5014259;28;20198;-86
2022/01/16 11:35:37;;;;;;;7.97;5.67;;;11.70;74.20;11.20;97118.00;;;;5019837;28;20210;-86
2022/01/16 11:38:32;;;;;;;6.17;4.80;;;11.80;73.00;11.20;97128.00;;;;5017647;28;20201;-87
2022/01/16 11:41:26;;;;;;;9.73;6.33;;;12.00;72.40;11.10;97112.00;;;;5013149;28;20210;-86
2022/01/16 11:44:26;;;;;;;6.90;4.57;;;12.40;69.30;12.40;97119.00;;;;5018762;28;20587;-86
2022/01/16 11:47:16;;;;;;;6.93;5.20;;;12.50;70.80;12.10;97113.00;;;;5016406;28;20210;-86
2022/01/16 11:50:10;;;;;;;7.70;5.40;;;12.70;68.90;10.90;97113.00;;;;5018899;28;20198;-85
2022/01/16 11:52:59;;;;;;;9.13;5.20;;;13.10;65.90;12.20;97122.00;;;;5017522;28;20228;-86
2022/01/16 11:55:48;;;;;;;7.70;5.27;;;13.10;66.10;12.90;97120.00;;;;5005698;28;20206;-86
2022/01/16 11:59:15;;;;;;;9.13;5.77;;;13.30;66.00;13.90;97124.00;;;;5015382;28;20213;-86
2022/01/16 12:02:27;;;;;;;7.67;5.33;;;13.70;65.50;13.30;97126.00;;;;5012639;28;20222;-86
2022/01/16 12:05:23;;;;;;;8.83;5.60;;;13.90;63.60;14.30;97128.00;;;;5017990;28;20216;-86
2022/01/16 12:08:19;;;;;;;5.70;4.63;;;14.30;62.60;14.20;97113.00;;;;5010602;28;20202;-86
2022/01/16 12:11:08;;;;;;;6.93;5.20;;;14.40;61.10;14.70;97112.00;;;;5014840;28;20209;-86
2022/01/16 12:13:58;;;;;;;8.73;5.60;;;14.80;60.00;13.70;97101.00;;;;5004981;28;20221;-86
2022/01/16 12:16:48;;;;;;;10.33;7.00;;;15.40;58.60;13.00;97099.00;;;;5015025;28;20202;-86
2022/01/16 12:19:47;;;;;;;10.20;6.73;;;15.50;57.40;13.60;97102.00;;;;5012741;28;20787;-86
2022/01/16 12:22:44;;;;;;;16.67;8.60;;;15.20;57.70;13.10;97108.00;;;;5005723;28;20206;-86
2022/01/16 12:25:37;;;;;;;11.27;6.60;;;15.40;57.00;11.90;97094.00;;;;5010657;28;20213;-87
2022/01/16 12:28:27;;;;;;;10.63;6.20;;;15.50;56.00;12.10;97091.00;;;;5012410;28;20209;-87
2022/01/16 12:31:34;;;;;;;8.90;5.73;;;15.00;56.50;14.20;97100.00;;;;5013587;28;20209;-86
2022/01/16 12:34:43;;;;;;;11.03;6.90;;;15.00;56.90;14.40;97098.00;;;;5009444;28;20275;-86
2022/01/16 12:37:42;;;;;;;14.70;6.53;;;15.10;56.90;14.30;97087.00;;;;5002512;28;20209;-86
2022/01/16 12:40:31;;;;;;;12.03;6.50;;;15.50;56.00;15.90;97095.00;;;;5008090;28;20212;-86
2022/01/16 12:43:27;;;;;;;10.00;7.07;;;15.90;55.60;15.80;97094.00;;;;5016736;28;20221;-86
2022/01/16 12:46:19;;;;;;;19.57;10.03;;;16.40;54.90;16.90;97087.00;;;;5011120;28;20202;-86
2022/01/16 12:49:12;;;;;;;20.93;9.47;;;16.60;55.60;17.40;97083.00;;;;5014891;28;20212;-86
2022/01/16 12:52:03;;;;;;;12.53;9.47;;;17.20;55.20;17.90;97096.00;;;;5008873;28;20210;-87
2022/01/16 12:54:52;;;;;;;14.80;9.07;;;17.80;54.00;17.40;97089.00;;;;5014211;28;20691;-87
2022/01/16 12:57:41;;;;;;;17.73;9.60;;;18.00;53.40;17.70;97088.00;;;;5001521;28;20222;-88
2022/01/16 13:00:30;;;;;;;16.40;9.70;;;18.10;53.30;18.10;97092.00;;;;5002908;28;20460;-88
2022/01/16 13:03:25;;;;;;;17.37;10.37;;;18.50;52.80;18.30;97100.00;;;;5010841;28;20238;-88
2022/01/16 13:06:22;;;;;;;17.37;10.87;;;18.80;52.10;18.20;97096.00;;;;4999720;28;20212;-88
2022/01/16 13:09:13;;;;;;;23.13;10.77;;;19.00;51.30;18.30;97090.00;;;;5001846;28;20844;-88